Time;durP1;ratioP1;P1;durP2;ratioP2;P2;SDS_P1;SDS_P2;PMS_P1;PMS_P2;Temp;Humidity;BMP_temperature;BMP_pressure;BME280_temperature;BME280_humidity;BME280_pressure;Samples;Min_cycle;Max_cycle;Signal;HPM_P1;HPM_P2
2024/01/22 00:03:47;;;;;;;2.58;1.30;;;;;;;17.64;32.01;100940.25;16111353;19;130580;-64
2024/01/22 00:09:09;;;;;;;2.25;1.20;;;;;;;17.61;32.08;100923.25;16107460;19;131296;-66
2024/01/22 00:14:31;;;;;;;2.10;1.10;;;;;;;17.57;32.38;100919.31;16111300;19;130883;-64
2024/01/22 00:19:53;;;;;;;1.63;1.10;;;;;;;17.54;32.27;100904.00;16111765;19;129517;-64
2024/01/22 00:25:15;;;;;;;1.35;0.90;;;;;;;17.50;32.48;100873.19;16105509;19;131298;-64
2024/01/22 00:30:37;;;;;;;2.42;1.05;;;;;;;17.49;32.61;100863.22;16109284;19;131629;-64
2024/01/22 00:35:59;;;;;;;1.20;0.90;;;;;;;17.46;32.66;100854.56;16109803;19;129623;-63
2024/01/22 00:41:21;;;;;;;2.55;1.02;;;;;;;17.43;32.57;100832.91;16108425;19;133063;-64
2024/01/22 00:46:43;;;;;;;2.53;1.30;;;;;;;17.40;32.54;100831.47;16122001;19;129316;-64
2024/01/22 00:52:06;;;;;;;3.28;1.25;;;;;;;17.37;32.70;100830.03;16115982;19;130851;-63
2024/01/22 00:57:28;;;;;;;3.13;1.35;;;;;;;17.34;32.93;100800.09;16116745;19;130970;-66
2024/01/22 01:02:50;;;;;;;2.00;1.10;;;;;;;17.33;33.07;100803.13;16120758;19;130436;-64
2024/01/22 01:08:11;;;;;;;1.60;0.80;;;;;;;17.30;33.33;100795.28;16123827;19;129942;-64
2024/01/22 01:13:33;;;;;;;2.35;0.80;;;;;;;17.28;33.11;100784.50;16119827;19;129677;-64
2024/01/22 01:18:55;;;;;;;2.47;0.77;;;;;;;17.25;33.40;100773.91;16124966;19;131165;-64
2024/01/22 01:24:17;;;;;;;2.25;1.08;;;;;;;17.22;33.18;100763.31;16120774;19;129942;-64
2024/01/22 01:29:39;;;;;;;3.50;1.00;;;;;;;17.19;33.63;100742.53;16123705;19;131741;-64
2024/01/22 01:35:02;;;;;;;3.10;0.90;;;;;;;17.16;33.65;100723.66;16120096;19;131385;-65
2024/01/22 01:40:24;;;;;;;6.05;0.80;;;;;;;17.15;33.89;100710.09;16118650;19;130987;-67
2024/01/22 01:45:46;;;;;;;2.03;0.80;;;;;;;17.12;33.70;100697.56;16120969;19;130051;-68
2024/01/22 01:51:08;;;;;;;2.67;0.80;;;;;;;17.11;34.19;100690.34;16119571;19;130059;-64
2024/01/22 01:56:31;;;;;;;1.52;0.50;;;;;;;17.09;33.81;100698.06;16113371;19;131632;-64
2024/01/22 02:01:53;;;;;;;1.73;0.77;;;;;;;17.07;33.76;100694.72;16120224;19;129520;-65
2024/01/22 02:07:16;;;;;;;3.78;0.95;;;;;;;17.06;34.07;100702.16;16119750;19;130472;-65
2024/01/22 02:12:37;;;;;;;2.20;0.63;;;;;;;17.07;34.16;100678.13;16120757;19;132095;-65
2024/01/22 02:18:03;;;;;;;1.92;0.50;;;;;;;17.05;34.50;100652.66;16121734;19;130077;-65
2024/01/22 02:23:25;;;;;;;0.93;0.40;;;;;;;17.02;34.39;100642.94;16112551;19;129623;-64
2024/01/22 02:28:47;;;;;;;0.95;0.40;;;;;;;17.02;34.72;100625.50;16116178;19;129651;-65
2024/01/22 02:34:11;;;;;;;1.48;0.50;;;;;;;17.02;34.39;100631.00;16117261;19;131692;-65
2024/01/22 02:39:35;;;;;;;0.35;0.30;;;;;;;17.01;34.97;100626.56;16116780;19;130097;-65
2024/01/22 02:44:58;;;;;;;0.40;0.38;;;;;;;16.99;35.00;100599.19;16113741;19;129834;-65
2024/01/22 02:50:20;;;;;;;0.75;0.28;;;;;;;16.98;35.09;100586.44;16117976;19;130307;-65
2024/01/22 02:55:42;;;;;;;0.40;0.25;;;;;;;16.97;34.97;100567.38;16111605;19;129368;-65
2024/01/22 03:01:04;;;;;;;3.83;0.85;;;;;;;16.96;35.63;100571.22;16114684;19;130141;-64
2024/01/22 03:06:26;;;;;;;0.93;0.30;;;;;;;16.92;35.99;100538.53;16113279;19;130429;-66
2024/01/22 03:11:48;;;;;;;2.20;0.43;;;;;;;16.89;36.10;100550.06;16115344;19;130086;-64
2024/01/22 03:17:10;;;;;;;4.63;0.38;;;;;;;16.88;35.90;100531.81;16112685;19;130126;-64
2024/01/22 03:22:32;;;;;;;0.50;0.22;;;;;;;16.87;36.13;100534.81;16109032;19;129223;-64
2024/01/22 03:27:54;;;;;;;0.95;0.40;;;;;;;16.84;36.32;100522.34;16114638;19;129668;-66
2024/01/22 03:33:17;;;;;;;0.75;0.40;;;;;;;16.83;36.82;100506.84;16111288;19;131024;-65
2024/01/22 03:38:39;;;;;;;0.45;0.30;;;;;;;16.82;36.75;100510.69;16116347;19;129504;-65
2024/01/22 03:44:02;;;;;;;1.90;0.38;;;;;;;16.80;36.92;100496.28;16116878;19;132155;-65
2024/01/22 03:49:24;;;;;;;1.08;0.30;;;;;;;16.79;37.03;100513.94;16111197;19;130211;-65
2024/01/22 03:54:48;;;;;;;0.88;0.30;;;;;;;16.78;37.08;100509.50;16116557;19;129727;-65
2024/01/22 04:00:10;;;;;;;1.27;0.40;;;;;;;16.77;36.93;100492.09;16112310;19;130556;-64
2024/01/22 04:05:32;;;;;;;0.93;0.32;;;;;;;16.76;37.28;100478.50;16116288;19;131518;-65
2024/01/22 04:10:54;;;;;;;1.02;0.40;;;;;;;16.75;37.47;100476.81;16110187;19;130358;-65
2024/01/22 04:16:16;;;;;;;1.27;0.40;;;;;;;16.74;37.54;100486.19;16109181;19;129423;-66
2024/01/22 04:21:45;;;;;;;0.70;0.30;;;;;;;16.75;37.39;100485.97;16107781;19;129543;-65
2024/01/22 04:27:07;;;;;;;1.25;0.40;;;;;;;16.71;37.47;100468.19;16111603;19;130123;-65
2024/01/22 04:32:29;;;;;;;2.33;0.40;;;;;;;16.71;37.78;100467.38;16102089;19;131692;-65
2024/01/22 04:37:51;;;;;;;1.58;0.40;;;;;;;16.69;37.76;100456.53;16111771;19;131925;-65
2024/01/22 04:43:13;;;;;;;1.20;0.50;;;;;;;16.70;37.69;100457.41;16110707;19;129822;-65
2024/01/22 04:48:37;;;;;;;0.57;0.35;;;;;;;16.70;37.79;100460.16;16108495;19;128933;-65
2024/01/22 04:53:59;;;;;;;1.60;0.47;;;;;;;16.69;38.08;100451.00;16109203;19;129965;-65
2024/01/22 04:59:21;;;;;;;1.27;0.40;;;;;;;16.69;37.70;100450.19;16111826;19;129267;-66
2024/01/22 05:04:43;;;;;;;1.25;0.30;;;;;;;16.69;38.28;100444.66;16105344;19;130508;-66
2024/01/22 05:10:09;;;;;;;1.00;0.30;;;;;;;16.70;38.15;100462.91;16107026;19;129585;-64
2024/01/22 05:15:31;;;;;;;1.30;0.45;;;;;;;16.69;38.01;100472.28;16107339;19;131189;-65
2024/01/22 05:20:53;;;;;;;0.85;0.30;;;;;;;16.68;38.03;100457.63;16103648;19;129343;-65
2024/01/22 05:26:15;;;;;;;0.88;0.40;;;;;;;16.68;38.51;100476.97;16098778;19;129743;-65
2024/01/22 05:31:37;;;;;;;0.40;0.30;;;;;;;16.68;38.61;100460.38;16118464;19;129375;-65
2024/01/22 05:36:59;;;;;;;0.30;0.30;;;;;;;16.68;38.20;100467.84;16121664;19;129332;-65
2024/01/22 05:42:21;;;;;;;0.35;0.30;;;;;;;16.67;38.39;100464.25;16126310;19;129651;-65
2024/01/22 05:47:43;;;;;;;1.77;0.28;;;;;;;16.66;38.50;100470.88;16118745;19;131079;-64
2024/01/22 05:53:05;;;;;;;0.70;0.30;;;;;;;16.67;38.77;100457.88;16114544;19;129604;-64
2024/01/22 05:58:27;;;;;;;1.63;0.88;;;;;;;16.66;39.15;100473.63;16131186;19;129961;-68
2024/01/22 06:03:50;;;;;;;1.92;0.60;;;;;;;16.66;39.30;100478.25;16121729;19;129640;-64
2024/01/22 06:09:12;;;;;;;3.50;0.80;;;;;;;16.67;39.85;100499.31;16122000;19;130737;-64
2024/01/22 06:14:34;;;;;;;2.97;0.50;;;;;;;16.73;39.97;100498.34;16121550;19;129719;-65
2024/01/22 06:19:58;;;;;;;8.15;0.68;;;;;;;16.84;40.37;100508.53;16131855;19;131018;-68
2024/01/22 06:25:20;;;;;;;3.22;0.50;;;;;;;16.95;40.47;100519.78;16137835;19;130372;-66
2024/01/22 06:30:43;;;;;;;4.93;0.70;;;;;;;17.04;40.76;100507.25;16150221;19;131510;-68
2024/01/22 06:36:06;;;;;;;2.28;0.30;;;;;;;17.12;40.91;100531.72;16161782;19;129513;-67
2024/01/22 06:41:28;;;;;;;4.22;0.40;;;;;;;17.21;40.60;100526.66;16170570;19;129452;-67
2024/01/22 06:46:50;;;;;;;2.95;0.65;;;;;;;17.29;40.40;100530.94;16149691;19;129429;-66
2024/01/22 06:52:12;;;;;;;1.20;0.30;;;;;;;17.36;40.42;100528.88;16121871;19;129768;-66
2024/01/22 06:57:34;;;;;;;1.98;0.57;;;;;;;17.43;40.28;100543.41;16124961;19;129497;-65
2024/01/22 07:02:57;;;;;;;2.22;0.50;;;;;;;17.49;40.10;100531.31;16121999;19;130123;-66
2024/01/22 07:08:20;;;;;;;2.05;0.60;;;;;;;17.56;39.94;100524.84;16123350;19;129429;-65
2024/01/22 07:13:42;;;;;;;3.05;0.60;;;;;;;17.62;39.97;100529.38;16122782;19;130338;-67
2024/01/22 07:19:03;;;;;;;2.08;0.60;;;;;;;17.64;39.83;100532.72;16123709;19;131337;-67
2024/01/22 07:24:26;;;;;;;3.17;0.82;;;;;;;17.65;39.43;100539.94;16120334;19;130602;-65
2024/01/22 07:29:48;;;;;;;5.93;1.30;;;;;;;17.65;39.39;100531.66;16116614;19;131286;-65
2024/01/22 07:35:13;;;;;;;5.10;0.98;;;;;;;17.64;39.75;100524.44;16116363;19;130729;-65
2024/01/22 07:40:36;;;;;;;4.10;1.08;;;;;;;17.61;39.47;100528.53;16113479;19;134351;-65
2024/01/22 07:45:59;;;;;;;6.25;1.38;;;;;;;17.58;39.36;100522.69;16112721;19;129391;-66
2024/01/22 07:51:21;;;;;;;8.95;1.40;;;;;;;17.55;39.30;100551.66;16110984;19;131353;-65
2024/01/22 07:56:43;;;;;;;4.22;1.38;;;;;;;17.52;39.28;100552.97;16113483;19;129836;-64
2024/01/22 08:02:06;;;;;;;5.47;1.48;;;;;;;17.49;39.19;100545.16;16113623;19;129828;-65
2024/01/22 08:07:28;;;;;;;5.13;1.52;;;;;;;17.46;39.22;100553.97;16109502;19;129337;-65
2024/01/22 08:12:50;;;;;;;5.65;1.67;;;;;;;17.43;39.23;100560.00;16111832;19;129458;-65
2024/01/22 08:18:12;;;;;;;7.60;1.95;;;;;;;17.41;39.24;100545.56;16110409;19;129848;-65
2024/01/22 08:23:34;;;;;;;5.35;1.33;;;;;;;17.41;39.68;100564.09;16111651;19;129500;-65
2024/01/22 08:28:55;;;;;;;6.47;1.52;;;;;;;17.41;39.18;100583.47;16104092;19;129995;-65
2024/01/22 08:34:17;;;;;;;3.42;1.00;;;;;;;17.39;39.16;100580.91;16103248;19;129699;-66
2024/01/22 08:39:40;;;;;;;4.95;1.30;;;;;;;17.37;39.32;100583.94;16106427;19;129481;-66
2024/01/22 08:45:03;;;;;;;4.43;1.23;;;;;;;17.35;39.32;100593.56;16109995;19;129307;-65
2024/01/22 08:50:25;;;;;;;3.90;1.10;;;;;;;17.33;39.56;100593.81;16110062;19;131901;-66
2024/01/22 08:55:46;;;;;;;4.10;1.10;;;;;;;17.32;39.36;100591.28;16114191;19;129787;-65
2024/01/22 09:01:08;;;;;;;6.03;1.08;;;;;;;17.28;39.30;100584.56;16108927;19;131028;-66
2024/01/22 09:06:30;;;;;;;3.72;1.13;;;;;;;17.27;39.26;100588.41;16124606;19;129906;-66
2024/01/22 09:11:52;;;;;;;4.75;1.10;;;;;;;17.22;39.09;100587.25;16125507;19;129874;-65
2024/01/22 09:17:14;;;;;;;4.43;1.10;;;;;;;17.21;39.55;100571.75;16119122;19;130812;-66
2024/01/22 09:22:37;;;;;;;3.70;1.20;;;;;;;17.21;39.27;100570.88;16123252;19;133805;-65
2024/01/22 09:27:59;;;;;;;4.68;1.17;;;;;;;17.20;39.44;100588.56;16119784;19;131195;-66
2024/01/22 09:33:21;;;;;;;4.05;1.48;;;;;;;17.19;39.59;100595.16;16120264;19;129344;-66
2024/01/22 09:38:43;;;;;;;6.10;1.23;;;;;;;17.19;39.16;100609.84;16120688;19;129587;-66
2024/01/22 09:44:06;;;;;;;5.88;1.45;;;;;;;17.20;39.36;100616.19;16124416;19;129690;-69
2024/01/22 09:49:28;;;;;;;4.35;1.25;;;;;;;17.18;39.27;100623.88;16120086;19;131076;-69
2024/01/22 09:54:53;;;;;;;5.10;1.30;;;;;;;17.17;39.75;100664.53;16122401;19;130403;-66
2024/01/22 10:00:18;;;;;;;8.43;2.07;;;;;;;17.13;39.67;100671.63;16124205;19;130016;-66
2024/01/22 10:05:40;;;;;;;5.70;1.92;;;;;;;17.11;39.36;100662.72;16121490;19;131250;-66
2024/01/22 10:11:03;;;;;;;4.88;1.52;;;;;;;17.10;39.49;100694.22;16121381;19;129465;-66
2024/01/22 10:16:26;;;;;;;6.68;2.20;;;;;;;17.08;39.35;100711.03;16119347;19;131077;-66
2024/01/22 10:21:48;;;;;;;9.15;2.03;;;;;;;17.09;39.50;100722.97;16119908;19;129409;-66
2024/01/22 10:27:14;;;;;;;4.20;1.50;;;;;;;17.15;39.46;100719.22;16116962;19;130790;-67
2024/01/22 10:32:36;;;;;;;5.90;1.40;;;;;;;17.23;39.60;100727.13;16120490;19;129359;-65
2024/01/22 10:38:19;;;;;;;4.85;1.67;;;;;;;17.33;39.36;100736.75;16123658;19;129538;-66
2024/01/22 10:43:42;;;;;;;3.50;1.25;;;;;;;17.39;39.32;100742.16;16121631;19;130916;-66
2024/01/22 10:49:04;;;;;;;7.05;1.90;;;;;;;17.46;38.91;100736.50;16116533;19;131076;-66
2024/01/22 10:54:27;;;;;;;6.38;1.38;;;;;;;17.51;38.97;100739.34;16118987;19;129392;-66
2024/01/22 10:59:51;;;;;;;3.63;0.90;;;;;;;17.52;38.99;100742.97;16120775;19;129987;-66
2024/01/22 11:05:18;;;;;;;5.97;1.50;;;;;;;17.52;38.60;100749.34;16113861;19;131591;-67
2024/01/22 11:10:43;;;;;;;7.57;1.70;;;;;;;17.48;39.04;100748.13;16111086;19;129531;-66
2024/01/22 11:16:07;;;;;;;6.15;1.80;;;;;;;17.42;38.78;100773.16;16113903;19;129237;-66
2024/01/22 11:21:43;;;;;;;5.85;1.65;;;;;;;17.36;39.29;100772.19;16113916;19;130056;-68
2024/01/22 11:27:06;;;;;;;6.20;1.63;;;;;;;17.48;39.09;100786.84;16115232;19;130896;-66
2024/01/22 11:32:28;;;;;;;7.72;1.85;;;;;;;17.64;38.66;100814.91;16111457;19;130282;-66
2024/01/22 11:37:50;;;;;;;7.28;2.28;;;;;;;17.65;38.49;100813.81;16116554;19;129553;-65
2024/01/22 11:43:16;;;;;;;6.07;1.83;;;;;;;17.66;38.72;100818.28;16111846;19;131255;-66
2024/01/22 11:48:38;;;;;;;8.68;2.33;;;;;;;17.71;38.42;100834.13;16108517;19;129422;-66
2024/01/22 11:54:00;;;;;;;6.57;1.92;;;;;;;17.80;38.48;100838.22;16107697;19;129513;-66
2024/01/22 11:59:22;;;;;;;10.55;2.50;;;;;;;17.91;38.13;100844.81;16109637;19;129394;-66
2024/01/22 12:04:44;;;;;;;7.13;2.20;;;;;;;17.96;37.96;100844.94;16114333;19;129569;-66
2024/01/22 12:10:18;;;;;;;8.85;2.63;;;;;;;18.20;37.34;100859.56;16108416;19;130085;-65
2024/01/22 12:15:40;;;;;;;6.30;1.90;;;;;;;18.54;36.98;100858.88;16110331;19;129507;-66
2024/01/22 12:21:02;;;;;;;6.82;2.28;;;;;;;19.03;36.64;100853.69;16112111;19;129816;-66
2024/01/22 12:26:24;;;;;;;8.55;2.60;;;;;;;19.48;35.77;100851.94;16108095;19;131977;-67
2024/01/22 12:31:46;;;;;;;6.47;2.03;;;;;;;19.71;35.65;100863.06;16111295;19;131173;-66
2024/01/22 12:37:18;;;;;;;8.88;2.40;;;;;;;19.95;35.01;100870.06;16110740;19;131675;-66
2024/01/22 12:42:50;;;;;;;9.57;2.42;;;;;;;20.10;34.72;100879.75;16128201;19;130439;-68
2024/01/22 12:48:12;;;;;;;7.85;2.60;;;;;;;20.35;34.36;100882.03;16127210;19;130578;-66
2024/01/22 12:53:35;;;;;;;6.72;2.35;;;;;;;20.24;34.35;100888.56;16129107;19;131786;-67
2024/01/22 12:58:58;;;;;;;9.77;2.55;;;;;;;19.99;34.04;100898.19;16118708;19;131463;-66
2024/01/22 13:04:20;;;;;;;8.57;2.50;;;;;;;19.83;34.19;100905.44;16122790;19;130294;-67
2024/01/22 13:09:42;;;;;;;6.65;1.85;;;;;;;19.59;34.49;100916.75;16122350;19;131061;-67
2024/01/22 13:15:04;;;;;;;7.65;2.55;;;;;;;19.42;34.88;100927.03;16120784;19;130009;-66
2024/01/22 13:20:26;;;;;;;8.60;2.50;;;;;;;19.21;34.62;100929.41;16121811;19;130084;-67
2024/01/22 13:25:49;;;;;;;8.80;2.13;;;;;;;19.05;34.71;100939.38;16124808;19;129438;-66
2024/01/22 13:31:10;;;;;;;10.68;2.78;;;;;;;18.93;35.07;100936.66;16122237;19;129301;-67
2024/01/22 13:36:33;;;;;;;7.90;1.90;;;;;;;18.91;35.06;100927.75;16120752;19;130366;-66
2024/01/22 13:41:55;;;;;;;7.55;2.38;;;;;;;19.00;34.93;100929.03;16123170;19;130702;-67
2024/01/22 13:47:19;;;;;;;7.60;2.30;;;;;;;18.97;34.93;100932.28;16120989;19;129544;-67
2024/01/22 13:52:57;;;;;;;7.88;2.25;;;;;;;18.86;35.05;100934.06;16122009;19;131363;-66
2024/01/22 13:58:22;;;;;;;10.27;2.40;;;;;;;18.71;34.87;100940.09;16120084;19;129802;-67
2024/01/22 14:03:44;;;;;;;8.52;2.10;;;;;;;18.53;35.07;100930.06;16120766;19;131349;-66
2024/01/22 14:09:06;;;;;;;8.60;2.40;;;;;;;18.39;34.90;100932.28;16121895;19;130492;-66
2024/01/22 14:14:28;;;;;;;9.98;2.53;;;;;;;18.30;35.23;100934.53;16115925;19;128970;-66
2024/01/22 14:19:58;;;;;;;7.45;2.58;;;;;;;18.22;35.03;100921.09;16120075;19;129734;-67
2024/01/22 14:25:20;;;;;;;6.93;2.25;;;;;;;18.21;35.04;100924.09;16118138;19;130792;-66
2024/01/22 14:30:44;;;;;;;9.02;2.33;;;;;;;18.30;34.69;100939.25;16119546;19;131232;-66
2024/01/22 14:36:08;;;;;;;8.93;2.75;;;;;;;18.34;35.00;100928.53;16119701;19;129523;-66
2024/01/22 14:41:31;;;;;;;9.13;2.33;;;;;;;18.26;34.93;100938.03;16115812;19;131163;-67
2024/01/22 14:46:53;;;;;;;8.93;2.47;;;;;;;18.18;34.91;100935.66;16125229;19;129456;-66
2024/01/22 14:52:14;;;;;;;10.32;2.25;;;;;;;18.08;35.17;100941.81;16119355;19;130573;-66
2024/01/22 14:57:37;;;;;;;10.60;2.58;;;;;;;17.98;34.98;100954.34;16123590;19;133046;-66
2024/01/22 15:02:59;;;;;;;8.60;2.40;;;;;;;17.90;35.54;100973.22;16125839;19;130083;-66
2024/01/22 15:08:21;;;;;;;10.90;2.40;;;;;;;17.81;35.23;100987.41;16138831;19;129062;-66
2024/01/22 15:13:43;;;;;;;10.32;2.63;;;;;;;17.72;35.48;101002.69;16136514;19;129884;-67
2024/01/22 15:19:05;;;;;;;8.63;2.00;;;;;;;17.64;35.60;101017.72;16138920;19;129339;-66
2024/01/22 15:24:27;;;;;;;8.55;2.20;;;;;;;17.57;35.70;101013.38;16134165;19;129774;-67
2024/01/22 15:29:49;;;;;;;8.35;2.05;;;;;;;17.52;35.74;101025.13;16131495;19;129373;-67
2024/01/22 15:35:12;;;;;;;7.43;2.40;;;;;;;17.47;36.00;101017.53;16121086;19;129391;-68
2024/01/22 15:40:36;;;;;;;10.02;2.20;;;;;;;17.43;35.71;101032.03;16119690;19;129500;-69
2024/01/22 15:45:58;;;;;;;8.50;2.00;;;;;;;17.37;36.03;101033.81;16123147;19;129584;-67
2024/01/22 15:51:20;;;;;;;6.28;1.83;;;;;;;17.33;35.75;101057.50;16134495;19;130087;-67
2024/01/22 15:56:42;;;;;;;7.85;1.98;;;;;;;17.28;36.18;101065.66;16129623;19;130620;-66
2024/01/22 16:02:04;;;;;;;5.32;1.60;;;;;;;17.27;36.18;101075.88;16115421;19;129712;-66
2024/01/22 16:07:27;;;;;;;5.53;1.75;;;;;;;17.29;36.08;101081.16;16119542;19;129832;-67
2024/01/22 16:12:52;;;;;;;6.45;1.55;;;;;;;17.35;36.14;101085.78;16114774;19;129801;-66
2024/01/22 16:18:14;;;;;;;5.03;1.63;;;;;;;17.41;36.28;101097.84;16115228;19;130487;-66
2024/01/22 16:23:37;;;;;;;4.05;1.60;;;;;;;17.48;36.07;101098.56;16112821;19;130439;-66
2024/01/22 16:28:59;;;;;;;5.20;1.65;;;;;;;17.54;36.06;101106.81;16115789;19;129460;-66
2024/01/22 16:34:22;;;;;;;4.95;1.45;;;;;;;17.62;35.59;101130.53;16112322;19;130950;-66
2024/01/22 16:39:46;;;;;;;6.38;1.90;;;;;;;17.69;35.74;101130.44;16111746;19;131695;-66
2024/01/22 16:45:08;;;;;;;4.28;1.27;;;;;;;17.72;35.72;101163.19;16109618;19;129928;-66
2024/01/22 16:50:30;;;;;;;9.98;2.40;;;;;;;17.71;35.74;101167.03;16107778;19;130869;-67
2024/01/22 16:55:52;;;;;;;9.95;2.42;;;;;;;17.66;36.55;101180.72;16110497;19;131704;-67
2024/01/22 17:01:14;;;;;;;23.50;2.85;;;;;;;17.63;36.65;101192.22;16106388;19;131174;-66
2024/01/22 17:06:39;;;;;;;51.10;18.73;;;;;;;17.67;37.05;101204.53;16109950;19;130888;-68
2024/01/22 17:12:03;;;;;;;25.05;8.05;;;;;;;17.71;38.16;101230.66;16110730;19;131076;-68
2024/01/22 17:17:25;;;;;;;20.48;6.28;;;;;;;17.72;38.31;101235.13;16106685;19;130455;-68
2024/01/22 17:22:49;;;;;;;22.83;5.07;;;;;;;17.71;38.71;101236.19;16109430;19;130383;-70
2024/01/22 17:28:11;;;;;;;18.08;5.30;;;;;;;17.69;38.76;101238.34;16122075;19;130478;-70
2024/01/22 17:33:36;;;;;;;10.30;4.00;;;;;;;17.66;38.77;101252.66;16125760;19;129448;-71
2024/01/22 17:38:59;;;;;;;11.20;4.05;;;;;;;17.62;39.04;101254.19;16124315;19;130379;-71
2024/01/22 17:44:21;;;;;;;16.08;3.92;;;;;;;17.61;39.11;101285.69;16126555;19;131033;-70
2024/01/22 17:49:43;;;;;;;10.10;3.13;;;;;;;17.59;39.38;101287.84;16126559;19;131125;-68
2024/01/22 17:55:05;;;;;;;14.10;3.20;;;;;;;17.57;38.70;101295.53;16119603;19;131134;-68
2024/01/22 18:00:27;;;;;;;14.20;3.53;;;;;;;17.53;38.56;101295.97;16120870;19;130967;-67
2024/01/22 18:05:49;;;;;;;12.70;3.28;;;;;;;17.51;37.83;101303.63;16123956;19;130043;-69
2024/01/22 18:11:16;;;;;;;12.88;3.75;;;;;;;17.50;37.66;101306.66;16119876;19;130922;-65
2024/01/22 18:16:39;;;;;;;16.23;3.08;;;;;;;17.51;37.17;101319.41;16120836;19;130264;-65
2024/01/22 18:22:02;;;;;;;20.30;3.05;;;;;;;17.54;37.82;101341.94;16121634;19;134586;-68
2024/01/22 18:27:24;;;;;;;20.00;3.80;;;;;;;17.62;37.88;101348.25;16121158;19;129865;-66
2024/01/22 18:32:46;;;;;;;16.80;3.60;;;;;;;17.68;37.68;101377.78;16118711;19;130642;-66
2024/01/22 18:38:09;;;;;;;12.63;3.17;;;;;;;17.72;38.02;101383.69;16117737;19;130017;-65
2024/01/22 18:43:31;;;;;;;17.98;3.65;;;;;;;17.72;37.53;101394.75;16114617;19;131216;-65
2024/01/22 18:48:53;;;;;;;34.58;3.83;;;;;;;17.74;38.16;101414.75;16118534;19;129391;-73
2024/01/22 18:54:16;;;;;;;17.70;4.00;;;;;;;17.78;38.07;101424.31;16117104;19;131366;-67
2024/01/22 18:59:38;;;;;;;29.60;3.95;;;;;;;17.80;37.97;101417.47;16120294;19;130874;-65
2024/01/22 19:05:00;;;;;;;27.45;3.22;;;;;;;17.83;37.71;101416.16;16119833;19;130904;-66
2024/01/22 19:10:22;;;;;;;22.50;3.53;;;;;;;17.82;37.45;101419.97;16118956;19;131005;-71
2024/01/22 19:15:44;;;;;;;15.02;2.85;;;;;;;17.79;36.78;101434.28;16117643;19;130348;-67
2024/01/22 19:21:06;;;;;;;13.40;2.83;;;;;;;17.81;37.00;101455.13;16116969;19;129444;-71
2024/01/22 19:26:28;;;;;;;23.52;2.67;;;;;;;17.92;37.00;101459.06;16110801;19;130523;-70
2024/01/22 19:31:50;;;;;;;13.93;2.53;;;;;;;18.09;36.84;101453.75;16112953;19;131019;-71
2024/01/22 19:37:12;;;;;;;11.65;2.65;;;;;;;18.26;36.85;101461.47;16111207;19;129759;-67
2024/01/22 19:42:36;;;;;;;15.60;2.90;;;;;;;18.43;36.53;101464.50;16112859;19;130380;-72
2024/01/22 19:47:58;;;;;;;11.55;2.67;;;;;;;18.56;36.52;101474.56;16111253;19;129937;-65
2024/01/22 19:53:21;;;;;;;20.63;3.55;;;;;;;18.69;36.56;101479.09;16114668;19;129855;-68
2024/01/22 19:58:43;;;;;;;37.97;4.22;;;;;;;18.78;36.67;101488.78;16114652;19;129716;-67
2024/01/22 20:04:07;;;;;;;22.67;3.60;;;;;;;18.83;36.40;101482.56;16116472;19;130042;-69
2024/01/22 20:09:29;;;;;;;18.52;3.95;;;;;;;18.83;36.80;101482.56;16113513;19;129405;-64
2024/01/22 20:14:52;;;;;;;17.20;3.47;;;;;;;18.83;36.54;101479.78;16114742;19;131756;-66
2024/01/22 20:20:14;;;;;;;23.00;3.05;;;;;;;18.78;36.96;101472.13;16112245;19;130118;-70
2024/01/22 20:25:36;;;;;;;15.00;3.10;;;;;;;18.76;36.58;101489.00;16110492;19;134204;-68
2024/01/22 20:30:59;;;;;;;15.82;3.50;;;;;;;18.72;36.91;101501.63;16113331;19;130034;-67
2024/01/22 20:36:21;;;;;;;13.80;2.58;;;;;;;18.69;36.64;101507.66;16110851;19;131745;-69
2024/01/22 20:41:43;;;;;;;15.57;2.45;;;;;;;18.63;36.43;101503.03;16112426;19;129760;-68
2024/01/22 20:47:06;;;;;;;10.90;3.10;;;;;;;18.56;36.70;101502.28;16114223;19;130012;-70
2024/01/22 20:52:28;;;;;;;10.48;2.67;;;;;;;18.53;36.59;101505.50;16109192;19;131187;-69
2024/01/22 20:57:50;;;;;;;13.80;3.00;;;;;;;18.46;36.40;101500.06;16108014;19;130516;-64
2024/01/22 21:03:13;;;;;;;16.20;3.38;;;;;;;18.42;36.46;101507.97;16126588;19;130366;-65
2024/01/22 21:08:35;;;;;;;20.55;3.80;;;;;;;18.37;35.92;101518.03;16126309;19;129551;-63
2024/01/22 21:13:57;;;;;;;18.67;3.10;;;;;;;18.29;35.83;101511.69;16124636;19;131151;-64
2024/01/22 21:19:19;;;;;;;14.32;3.45;;;;;;;18.25;36.08;101506.84;16122088;19;130567;-64
2024/01/22 21:24:42;;;;;;;14.02;3.30;;;;;;;18.20;35.68;101531.63;16124097;19;130120;-65
2024/01/22 21:30:04;;;;;;;11.93;2.95;;;;;;;18.15;35.75;101524.03;16119832;19;129694;-64
2024/01/22 21:35:26;;;;;;;12.80;3.05;;;;;;;18.10;35.66;101530.22;16117829;19;131084;-64
2024/01/22 21:40:49;;;;;;;12.27;3.17;;;;;;;18.05;35.82;101535.59;16119809;19;129326;-64
2024/01/22 21:46:11;;;;;;;11.50;3.13;;;;;;;18.00;35.48;101539.06;16116817;19;131039;-64
2024/01/22 21:51:33;;;;;;;9.38;2.17;;;;;;;17.96;35.36;101539.75;16117245;19;130681;-64
2024/01/22 21:56:55;;;;;;;12.07;2.35;;;;;;;17.90;35.41;101543.41;16120752;19;129561;-64
2024/01/22 22:02:17;;;;;;;9.60;2.72;;;;;;;17.85;35.64;101564.28;16120312;19;130077;-64
2024/01/22 22:07:39;;;;;;;9.50;2.22;;;;;;;17.80;35.53;101583.53;16121463;19;130321;-64
2024/01/22 22:13:01;;;;;;;10.20;2.47;;;;;;;17.76;35.69;101586.97;16119738;19;133819;-64
2024/01/22 22:18:23;;;;;;;11.27;2.70;;;;;;;17.69;35.64;101587.84;16118493;19;131828;-64
2024/01/22 22:23:46;;;;;;;10.20;2.38;;;;;;;17.64;35.69;101589.59;16118912;19;132043;-64
2024/01/22 22:29:08;;;;;;;11.48;2.60;;;;;;;17.56;35.40;101610.06;16117597;19;130385;-63
2024/01/22 22:34:30;;;;;;;7.47;2.58;;;;;;;17.50;35.63;101630.31;16115764;19;129116;-64
2024/01/22 22:39:52;;;;;;;10.27;2.40;;;;;;;17.44;35.58;101623.75;16119629;19;129651;-63
2024/01/22 22:45:14;;;;;;;9.65;2.53;;;;;;;17.39;35.35;101629.94;16112554;19;129512;-63
2024/01/22 22:50:36;;;;;;;12.18;2.47;;;;;;;17.34;35.60;101623.38;16113025;19;131123;-64
2024/01/22 22:55:58;;;;;;;10.07;2.40;;;;;;;17.30;35.55;101644.22;16112258;19;131174;-67
2024/01/22 23:01:20;;;;;;;8.10;2.22;;;;;;;17.25;35.66;101664.25;16118940;19;129418;-64
2024/01/22 23:06:42;;;;;;;9.27;2.53;;;;;;;17.21;35.34;101660.22;16114507;19;130320;-63
2024/01/22 23:12:04;;;;;;;8.30;2.55;;;;;;;17.16;35.54;101666.41;16115680;19;131511;-64
2024/01/22 23:17:26;;;;;;;6.05;2.05;;;;;;;17.13;35.67;101664.06;16116499;19;129568;-63
2024/01/22 23:22:48;;;;;;;8.18;2.60;;;;;;;17.10;35.41;101669.19;16111850;19;130339;-63
2024/01/22 23:28:09;;;;;;;6.38;1.95;;;;;;;17.05;35.73;101653.25;16115013;19;131258;-63
2024/01/22 23:33:36;;;;;;;6.47;1.83;;;;;;;17.02;35.86;101692.38;16115265;19;129457;-63
2024/01/22 23:39:04;;;;;;;9.75;2.42;;;;;;;16.99;35.55;101679.00;16112737;19;130566;-63
2024/01/22 23:44:26;;;;;;;10.15;2.67;;;;;;;16.96;35.60;101690.50;16109459;19;131642;-63
2024/01/22 23:49:48;;;;;;;10.70;2.50;;;;;;;16.90;35.60;101690.28;16115067;19;129569;-63
2024/01/22 23:55:10;;;;;;;9.52;2.45;;;;;;;16.87;35.75;101707.28;16112435;19;130743;-63
